Time;durP1;ratioP1;P1;durP2;ratioP2;P2;SDS_P1;SDS_P2;PMS_P1;PMS_P2;Temp;Humidity;BMP_temperature;BMP_pressure;BME280_temperature;BME280_humidity;BME280_pressure;Samples;Min_cycle;Max_cycle;Signal;HPM_P1;HPM_P2
2022/11/18 00:00:52;;;;;;;14.67;10.33;;;-1.10;99.90;;;;;;4994908;28;20302;-65
2022/11/18 00:03:20;;;;;;;12.90;9.73;;;-1.00;99.90;;;;;;4995139;28;20211;-66
2022/11/18 00:05:53;;;;;;;14.90;10.20;;;-1.00;99.90;;;;;;4994816;28;20211;-66
2022/11/18 00:08:20;;;;;;;14.67;10.60;;;-0.90;99.90;;;;;;4995255;28;20192;-66
2022/11/18 00:10:47;;;;;;;15.27;10.50;;;-0.90;99.90;;;;;;4995018;28;20214;-65
2022/11/18 00:16:01;;;;;;;15.27;10.40;;;-0.80;99.90;;;;;;4994868;28;20191;-64
2022/11/18 00:18:29;;;;;;;14.27;10.17;;;-0.80;99.90;;;;;;4994948;28;20227;-65
2022/11/18 00:21:00;;;;;;;13.77;10.40;;;-0.90;99.90;;;;;;4994818;28;20222;-68
2022/11/18 00:23:27;;;;;;;14.37;10.17;;;-0.90;99.90;;;;;;4993509;28;20212;-66
2022/11/18 00:25:53;;;;;;;15.40;11.23;;;-0.90;99.90;;;;;;4987917;28;20235;-65
2022/11/18 00:28:20;;;;;;;12.40;9.30;;;-0.90;99.90;;;;;;4993116;28;20210;-68
2022/11/18 00:30:47;;;;;;;13.37;10.10;;;-0.90;99.90;;;;;;4993193;28;20203;-66
2022/11/18 00:33:14;;;;;;;12.43;9.77;;;-0.90;99.90;;;;;;4993777;28;20214;-66
2022/11/18 00:35:42;;;;;;;14.13;10.13;;;-0.90;99.90;;;;;;4992238;28;20644;-65
2022/11/18 00:38:09;;;;;;;14.93;10.70;;;-0.90;99.90;;;;;;4994165;28;20226;-68
2022/11/18 00:40:35;;;;;;;13.83;10.20;;;-1.00;99.90;;;;;;4992333;28;20217;-66
2022/11/18 00:43:01;;;;;;;13.60;10.23;;;-1.00;99.90;;;;;;4991563;28;20239;-65
2022/11/18 00:45:28;;;;;;;13.77;10.43;;;-0.90;99.90;;;;;;4991331;28;20200;-65
2022/11/18 00:47:55;;;;;;;14.20;9.83;;;-0.90;99.90;;;;;;4993623;28;20206;-66
2022/11/18 00:50:21;;;;;;;14.97;10.13;;;-1.00;99.90;;;;;;4993889;28;20208;-64
2022/11/18 00:52:50;;;;;;;14.73;9.63;;;-0.90;99.90;;;;;;4992016;28;20208;-65
2022/11/18 00:55:17;;;;;;;13.13;9.73;;;-0.90;99.90;;;;;;4993874;28;20303;-65
2022/11/18 00:57:43;;;;;;;15.67;10.67;;;-0.90;99.90;;;;;;4993806;28;20231;-65
2022/11/18 01:00:11;;;;;;;14.63;9.77;;;-0.90;99.90;;;;;;4992832;28;20212;-66
2022/11/18 01:02:38;;;;;;;14.83;10.20;;;-0.90;99.90;;;;;;4989532;28;20211;-65
2022/11/18 01:05:05;;;;;;;15.83;10.70;;;-0.80;99.90;;;;;;4994150;28;20211;-65
2022/11/18 01:07:32;;;;;;;15.07;10.23;;;-0.80;99.90;;;;;;4992379;28;20209;-64
2022/11/18 01:10:00;;;;;;;14.23;10.27;;;-0.80;99.90;;;;;;4992990;28;20207;-65
2022/11/18 01:15:11;;;;;;;15.00;9.97;;;-0.80;99.90;;;;;;4993083;28;20273;-65
2022/11/18 01:17:37;;;;;;;15.73;10.37;;;-0.80;99.90;;;;;;4988529;28;20227;-65
2022/11/18 01:20:05;;;;;;;14.60;10.00;;;-0.80;99.90;;;;;;4992137;28;20209;-65
2022/11/18 01:22:32;;;;;;;14.80;10.60;;;-0.80;99.90;;;;;;4992162;28;20628;-65
2022/11/18 01:25:00;;;;;;;16.30;10.47;;;-0.80;99.90;;;;;;4993515;28;20548;-66
2022/11/18 01:27:27;;;;;;;16.57;10.30;;;-0.80;99.90;;;;;;4992756;28;20229;-66
2022/11/18 01:29:53;;;;;;;14.97;10.27;;;-0.80;99.90;;;;;;4993366;28;20203;-64
2022/11/18 01:32:20;;;;;;;16.40;11.13;;;-0.80;99.90;;;;;;4992952;28;20213;-65
2022/11/18 01:34:47;;;;;;;17.37;11.63;;;-0.80;99.90;;;;;;4993234;28;20208;-65
2022/11/18 01:37:14;;;;;;;13.77;9.67;;;-0.90;99.90;;;;;;4992561;28;20207;-66
2022/11/18 01:39:41;;;;;;;14.97;10.83;;;-0.90;99.90;;;;;;4992733;28;20227;-66
2022/11/18 01:42:14;;;;;;;16.57;10.93;;;-0.90;99.90;;;;;;4992876;28;20330;-65
2022/11/18 01:45:08;;;;;;;16.67;11.03;;;-0.90;99.90;;;;;;4993134;28;20310;-65
2022/11/18 01:47:40;;;;;;;17.97;10.87;;;-0.90;99.90;;;;;;4990484;28;20245;-66
2022/11/18 01:50:09;;;;;;;15.53;10.97;;;-0.90;99.90;;;;;;4992954;28;20195;-65
2022/11/18 01:52:37;;;;;;;14.73;10.77;;;-0.90;99.90;;;;;;4993006;28;20217;-65
2022/11/18 01:55:09;;;;;;;17.77;11.17;;;-0.90;99.90;;;;;;4993237;28;20695;-66
2022/11/18 01:57:38;;;;;;;17.57;11.93;;;-0.90;99.90;;;;;;4992218;28;20199;-67
2022/11/18 02:00:07;;;;;;;19.23;11.43;;;-0.90;99.90;;;;;;4991478;28;20207;-66
2022/11/18 02:02:36;;;;;;;16.27;11.07;;;-0.80;99.90;;;;;;4992599;28;20289;-64
2022/11/18 02:05:06;;;;;;;14.73;10.83;;;-0.80;99.90;;;;;;4992729;28;20210;-65
2022/11/18 02:07:34;;;;;;;15.03;11.37;;;-0.80;99.90;;;;;;4991423;28;20230;-66
2022/11/18 02:10:05;;;;;;;18.43;11.60;;;-0.90;99.90;;;;;;4992333;28;20230;-66
2022/11/18 02:12:32;;;;;;;17.23;10.40;;;-0.80;99.90;;;;;;4992260;28;20200;-64
2022/11/18 02:15:02;;;;;;;15.60;10.97;;;-0.90;99.90;;;;;;4992934;28;20234;-65
2022/11/18 02:17:37;;;;;;;18.70;11.90;;;-1.00;99.90;;;;;;4992739;28;20231;-69
2022/11/18 02:20:20;;;;;;;16.50;11.50;;;-1.00;99.90;;;;;;4992151;28;20214;-69
2022/11/18 02:23:26;;;;;;;16.33;11.80;;;-1.00;99.90;;;;;;4992600;28;20195;-67
2022/11/18 02:26:22;;;;;;;14.93;11.60;;;-1.00;99.90;;;;;;4992693;28;20238;-69
2022/11/18 02:29:01;;;;;;;17.03;10.97;;;-1.00;99.90;;;;;;4991183;28;20196;-69
2022/11/18 02:31:32;;;;;;;14.77;10.50;;;-1.00;99.90;;;;;;4992276;28;20195;-68
2022/11/18 02:34:07;;;;;;;16.30;11.60;;;-1.00;99.90;;;;;;4992459;28;20238;-68
2022/11/18 02:36:48;;;;;;;16.77;12.17;;;-1.00;99.90;;;;;;4992043;28;20282;-68
2022/11/18 02:39:21;;;;;;;15.43;11.27;;;-1.10;99.90;;;;;;4991728;28;20244;-71
2022/11/18 02:41:50;;;;;;;17.47;11.97;;;-1.10;99.90;;;;;;4992368;28;20196;-69
2022/11/18 02:44:22;;;;;;;19.60;12.70;;;-1.00;99.90;;;;;;4992670;28;20699;-68
2022/11/18 02:46:53;;;;;;;16.33;12.23;;;-1.00;99.90;;;;;;4992532;28;20242;-67
2022/11/18 02:49:28;;;;;;;15.97;11.80;;;-1.00;99.90;;;;;;4991898;28;20204;-68
2022/11/18 02:51:57;;;;;;;18.00;12.23;;;-1.00;99.90;;;;;;4991062;28;20210;-69
2022/11/18 02:54:27;;;;;;;18.10;12.43;;;-1.00;99.90;;;;;;4992200;28;20804;-70
2022/11/18 02:56:55;;;;;;;17.63;12.23;;;-1.00;99.90;;;;;;4992363;28;20823;-68
2022/11/18 02:59:23;;;;;;;15.80;11.33;;;-1.00;99.90;;;;;;4991989;28;20258;-69
2022/11/18 03:01:50;;;;;;;18.87;12.43;;;-1.00;99.90;;;;;;4990382;28;20722;-66
2022/11/18 03:04:18;;;;;;;17.47;12.10;;;-1.00;99.90;;;;;;4992339;28;20211;-66
2022/11/18 03:06:50;;;;;;;17.43;11.90;;;-1.10;99.90;;;;;;4992159;28;20218;-65
2022/11/18 03:09:24;;;;;;;15.20;11.17;;;-1.10;99.90;;;;;;4991510;28;20188;-66
2022/11/18 03:11:59;;;;;;;15.73;11.90;;;-1.00;99.90;;;;;;4992208;28;20191;-66
2022/11/18 03:14:35;;;;;;;20.17;12.63;;;-0.90;99.90;;;;;;4992119;28;20644;-65
2022/11/18 03:17:08;;;;;;;17.77;11.87;;;-0.90;99.90;;;;;;4992187;28;20202;-65
2022/11/18 03:19:46;;;;;;;13.77;10.53;;;-0.90;99.90;;;;;;4990537;28;20294;-66
2022/11/18 03:22:21;;;;;;;15.97;12.20;;;-0.90;99.90;;;;;;4992015;28;20203;-67
2022/11/18 03:24:56;;;;;;;17.40;11.80;;;-0.90;99.90;;;;;;4994020;28;20594;-68
2022/11/18 03:27:29;;;;;;;18.13;12.23;;;-1.00;99.90;;;;;;4995493;28;20191;-70
2022/11/18 03:30:03;;;;;;;17.67;12.83;;;-1.00;99.90;;;;;;4993721;28;20609;-67
2022/11/18 03:32:33;;;;;;;20.03;12.97;;;-1.00;99.90;;;;;;4994963;28;20203;-67
2022/11/18 03:35:05;;;;;;;16.83;12.13;;;-1.00;99.90;;;;;;4995377;28;20203;-67
2022/11/18 03:37:34;;;;;;;18.67;13.17;;;-1.00;99.90;;;;;;4995231;28;20195;-66
2022/11/18 03:40:11;;;;;;;16.43;11.27;;;-0.90;99.90;;;;;;4994671;28;20227;-67
2022/11/18 03:42:42;;;;;;;17.63;12.50;;;-0.90;99.90;;;;;;4995121;28;20270;-67
2022/11/18 03:45:16;;;;;;;17.40;11.77;;;-0.80;99.90;;;;;;4995277;28;20196;-67
2022/11/18 03:47:47;;;;;;;17.00;12.27;;;-0.80;99.90;;;;;;4995641;28;20217;-67
2022/11/18 03:50:17;;;;;;;16.03;11.53;;;-0.80;99.90;;;;;;4993515;28;20236;-67
2022/11/18 03:52:45;;;;;;;18.50;12.20;;;-0.80;99.90;;;;;;4995730;28;20211;-68
2022/11/18 03:55:16;;;;;;;18.70;12.97;;;-0.80;99.90;;;;;;4995089;28;20203;-67
2022/11/18 03:57:48;;;;;;;19.87;13.47;;;-0.70;99.90;;;;;;4995383;28;20196;-67
2022/11/18 04:00:19;;;;;;;22.20;12.73;;;-0.80;99.90;;;;;;4993275;28;20208;-69
2022/11/18 04:02:47;;;;;;;16.77;11.70;;;-0.80;99.90;;;;;;4994887;28;20199;-68
2022/11/18 04:05:16;;;;;;;17.23;11.53;;;-0.80;99.90;;;;;;4994545;28;20213;-67
2022/11/18 04:07:52;;;;;;;17.07;12.10;;;-0.70;99.90;;;;;;4995052;28;20257;-68
2022/11/18 04:10:22;;;;;;;17.93;13.03;;;-0.60;99.90;;;;;;4994173;28;20199;-68
2022/11/18 04:12:53;;;;;;;17.57;12.13;;;-0.60;99.90;;;;;;4994608;28;20214;-68
2022/11/18 04:15:21;;;;;;;15.53;12.07;;;-0.60;99.90;;;;;;4994657;28;20202;-67
2022/11/18 04:17:48;;;;;;;19.67;13.20;;;-0.60;99.90;;;;;;4994498;28;20227;-66
2022/11/18 04:20:18;;;;;;;18.03;12.70;;;-0.60;99.90;;;;;;4992056;28;20222;-67
2022/11/18 04:22:45;;;;;;;20.73;13.03;;;-0.60;99.90;;;;;;4994396;28;20250;-67
2022/11/18 04:25:11;;;;;;;16.57;12.53;;;-0.60;99.90;;;;;;4994467;28;20229;-68
2022/11/18 04:27:38;;;;;;;18.43;12.50;;;-0.60;99.90;;;;;;4994397;28;20214;-67
2022/11/18 04:30:07;;;;;;;18.57;12.73;;;-0.60;99.90;;;;;;4994648;28;20214;-68
2022/11/18 04:32:35;;;;;;;19.13;13.50;;;-0.60;99.90;;;;;;4991446;28;20258;-67
2022/11/18 04:35:02;;;;;;;18.13;12.57;;;-0.50;99.90;;;;;;4994408;28;20207;-67
2022/11/18 04:37:29;;;;;;;18.03;12.53;;;-0.60;99.90;;;;;;4994221;28;20655;-68
2022/11/18 04:39:55;;;;;;;17.07;12.13;;;-0.60;99.90;;;;;;4994346;28;20228;-68
2022/11/18 04:42:23;;;;;;;17.03;11.57;;;-0.60;99.90;;;;;;4993231;28;20247;-68
2022/11/18 04:44:49;;;;;;;18.30;11.50;;;-0.50;99.90;;;;;;4994453;28;20566;-69
2022/11/18 04:47:16;;;;;;;16.60;10.67;;;-0.50;99.90;;;;;;4993799;28;20203;-68
2022/11/18 04:49:44;;;;;;;16.27;10.40;;;-0.50;99.90;;;;;;4994159;28;20210;-67
2022/11/18 04:52:12;;;;;;;15.43;10.83;;;-0.50;99.90;;;;;;4993088;28;20231;-67
2022/11/18 04:54:39;;;;;;;15.93;11.07;;;-0.50;99.90;;;;;;4994278;28;20213;-67
2022/11/18 04:57:05;;;;;;;16.20;11.43;;;-0.50;99.90;;;;;;4993551;28;20208;-67
2022/11/18 04:59:33;;;;;;;15.93;11.63;;;-0.50;99.90;;;;;;4993983;28;20233;-67
2022/11/18 05:02:00;;;;;;;16.67;11.10;;;-0.40;99.90;;;;;;4993122;28;20213;-69
2022/11/18 05:04:30;;;;;;;16.27;11.23;;;-0.50;99.90;;;;;;4992325;28;20211;-69
2022/11/18 05:07:00;;;;;;;15.33;10.63;;;-0.40;99.90;;;;;;4993339;28;20199;-67
2022/11/18 05:09:26;;;;;;;13.93;10.30;;;-0.40;99.90;;;;;;4992382;28;21579;-67
2022/11/18 05:14:38;;;;;;;17.90;10.67;;;-0.30;99.90;;;;;;4993599;28;20198;-67
2022/11/18 05:17:08;;;;;;;15.13;10.50;;;-0.20;99.90;;;;;;4993250;28;20207;-66
2022/11/18 05:19:36;;;;;;;17.47;10.33;;;-0.30;99.90;;;;;;4993309;28;20212;-66
2022/11/18 05:22:05;;;;;;;14.40;10.40;;;-0.30;99.90;;;;;;4993162;28;20208;-66
2022/11/18 05:24:31;;;;;;;14.43;10.27;;;-0.30;99.90;;;;;;4993819;28;20590;-65
2022/11/18 05:26:58;;;;;;;14.33;10.63;;;-0.20;99.90;;;;;;4993396;28;20222;-67
2022/11/18 05:29:25;;;;;;;15.83;10.77;;;-0.20;99.90;;;;;;4993452;28;20200;-66
2022/11/18 05:31:52;;;;;;;14.50;10.13;;;-0.20;99.90;;;;;;4993487;28;20214;-66
2022/11/18 05:34:19;;;;;;;16.23;10.73;;;-0.20;99.90;;;;;;4993019;28;20207;-66
2022/11/18 05:36:46;;;;;;;14.40;10.70;;;-0.20;99.90;;;;;;4993202;28;20211;-66
2022/11/18 05:39:14;;;;;;;13.80;10.00;;;-0.20;99.90;;;;;;4993019;28;20253;-65
2022/11/18 05:44:25;;;;;;;13.97;9.67;;;-0.20;99.90;;;;;;4992840;28;20627;-67
2022/11/18 05:46:53;;;;;;;12.43;9.03;;;-0.40;99.90;;;;;;4992389;28;20254;-66
2022/11/18 05:49:20;;;;;;;18.57;10.17;;;-0.40;99.90;;;;;;4992689;28;20230;-67
2022/11/18 05:51:46;;;;;;;18.03;11.50;;;-0.40;99.90;;;;;;4993185;28;20540;-67
2022/11/18 05:54:16;;;;;;;14.23;9.80;;;-0.40;99.90;;;;;;4992917;28;20226;-66
2022/11/18 05:56:44;;;;;;;15.27;10.40;;;-0.40;99.90;;;;;;4993185;28;20216;-69
2022/11/18 05:59:11;;;;;;;14.33;10.00;;;-0.40;99.90;;;;;;4992735;28;20230;-66
2022/11/18 06:01:43;;;;;;;15.53;10.17;;;-0.40;99.90;;;;;;4992634;28;20227;-65
2022/11/18 06:04:15;;;;;;;16.20;10.33;;;-0.50;99.90;;;;;;4992919;28;20218;-66
2022/11/18 10:33:03;;;;;;;21.87;14.83;;;0.00;99.90;;;;;;5025622;28;20652;-66
2022/11/18 10:35:33;;;;;;;17.83;13.77;;;0.00;99.90;;;;;;5010712;28;20274;-67
2022/11/18 10:38:05;;;;;;;22.50;15.33;;;0.10;99.90;;;;;;5009410;28;20599;-66
2022/11/18 10:40:33;;;;;;;24.17;15.43;;;0.20;99.90;;;;;;5009357;28;20217;-66
2022/11/18 10:43:00;;;;;;;23.77;15.60;;;0.20;99.90;;;;;;5009326;28;20213;-65
2022/11/18 10:45:30;;;;;;;33.10;19.30;;;0.40;99.90;;;;;;5012237;28;20202;-66
2022/11/18 10:48:09;;;;;;;21.93;14.67;;;0.50;99.90;;;;;;5496156;23;20731;-68
2022/11/18 10:50:37;;;;;;;20.23;14.00;;;0.50;99.90;;;;;;5089388;28;20200;-68
2022/11/18 10:53:05;;;;;;;20.23;13.63;;;0.50;99.90;;;;;;5089929;28;20232;-67
2022/11/18 10:55:32;;;;;;;23.57;15.00;;;0.50;99.90;;;;;;5089483;28;20207;-66
2022/11/18 10:58:03;;;;;;;22.53;14.57;;;0.50;99.90;;;;;;5083845;28;20562;-67
2022/11/18 11:00:49;;;;;;;20.60;14.23;;;0.60;99.90;;;;;;5089359;28;20555;-67
2022/11/18 11:03:26;;;;;;;26.43;14.90;;;0.70;99.90;;;;;;5069526;28;20547;-67
2022/11/18 11:06:31;;;;;;;21.93;14.37;;;0.70;99.90;;;;;;5088865;28;20681;-66
2022/11/18 11:09:05;;;;;;;20.57;13.57;;;0.80;99.90;;;;;;5087877;28;20210;-66
2022/11/18 11:11:34;;;;;;;22.30;14.23;;;0.80;99.90;;;;;;5089073;28;20208;-68
2022/11/18 11:14:16;;;;;;;20.63;13.53;;;0.70;99.90;;;;;;5089064;28;20206;-67
2022/11/18 11:16:49;;;;;;;21.03;13.93;;;0.70;99.90;;;;;;5089226;28;20655;-67
2022/11/18 11:19:21;;;;;;;20.00;13.70;;;0.80;99.90;;;;;;5088840;28;20192;-68
2022/11/18 11:21:47;;;;;;;20.47;13.50;;;0.80;99.90;;;;;;5088897;28;20567;-67
2022/11/18 11:24:14;;;;;;;22.40;14.37;;;0.80;99.90;;;;;;5088698;28;20200;-67
2022/11/18 11:26:53;;;;;;;26.50;14.43;;;0.80;99.90;;;;;;5089013;28;20200;-67
2022/11/18 11:29:35;;;;;;;21.80;14.17;;;0.70;99.90;;;;;;5089591;28;20204;-67
2022/11/18 11:32:10;;;;;;;20.70;14.50;;;0.70;99.90;;;;;;5088961;28;20635;-67
2022/11/18 11:34:47;;;;;;;22.83;14.20;;;0.70;99.90;;;;;;5088669;28;20214;-68
2022/11/18 11:37:23;;;;;;;23.23;14.20;;;0.70;99.90;;;;;;5089071;28;20238;-68
2022/11/18 11:40:04;;;;;;;25.33;14.97;;;0.70;99.90;;;;;;5088768;28;20635;-67
2022/11/18 11:42:43;;;;;;;23.63;14.43;;;0.80;99.90;;;;;;5085281;28;20181;-68
2022/11/18 11:45:19;;;;;;;26.53;16.20;;;0.80;99.90;;;;;;5075744;28;20193;-69
2022/11/18 11:48:04;;;;;;;25.77;16.00;;;0.90;99.90;;;;;;5074909;28;20576;-68
2022/11/18 11:50:53;;;;;;;26.50;15.87;;;0.90;99.90;;;;;;5072600;28;20293;-66
2022/11/18 11:53:31;;;;;;;28.33;16.70;;;1.00;99.90;;;;;;5062538;28;20197;-69
2022/11/18 11:56:07;;;;;;;25.60;15.90;;;1.00;99.90;;;;;;5068978;28;20205;-67
2022/11/18 11:58:56;;;;;;;25.73;16.20;;;1.10;99.90;;;;;;5064445;28;20719;-66
2022/11/18 12:01:34;;;;;;;26.07;16.57;;;1.10;99.90;;;;;;5073617;28;20201;-66
2022/11/18 12:04:14;;;;;;;24.37;15.17;;;1.10;99.90;;;;;;5074840;28;20189;-68
2022/11/18 12:06:46;;;;;;;24.03;15.00;;;1.10;99.90;;;;;;5073762;28;20270;-68
2022/11/18 12:09:18;;;;;;;26.37;16.03;;;1.00;99.90;;;;;;5073327;28;20219;-67
2022/11/18 12:11:51;;;;;;;25.83;16.43;;;1.00;99.90;;;;;;5074522;28;20669;-66
2022/11/18 12:14:28;;;;;;;36.70;19.63;;;1.00;99.90;;;;;;5074743;28;20235;-66
2022/11/18 12:17:03;;;;;;;38.37;19.60;;;1.00;99.90;;;;;;5074530;28;20262;-67
2022/11/18 12:19:31;;;;;;;28.03;17.37;;;1.00;99.90;;;;;;5072910;28;20199;-67
2022/11/18 12:22:02;;;;;;;26.27;16.67;;;1.00;99.90;;;;;;5073829;28;20672;-68
2022/11/18 12:24:35;;;;;;;21.70;14.50;;;0.90;99.90;;;;;;5072230;28;20236;-66
2022/11/18 12:27:04;;;;;;;19.60;13.17;;;0.90;99.90;;;;;;5071696;28;20238;-66
2022/11/18 12:29:40;;;;;;;17.77;13.13;;;0.80;99.90;;;;;;5072754;28;20223;-68
2022/11/18 12:32:26;;;;;;;21.73;14.00;;;0.70;99.90;;;;;;5073209;28;20247;-66
2022/11/18 12:34:59;;;;;;;26.47;15.50;;;0.80;99.90;;;;;;5070101;28;20197;-67
2022/11/18 12:37:45;;;;;;;26.57;15.83;;;0.80;99.90;;;;;;5072593;28;20303;-66
2022/11/18 12:40:38;;;;;;;23.53;15.83;;;0.70;99.90;;;;;;5073945;28;20295;-67
2022/11/18 12:45:55;;;;;;;27.37;16.20;;;0.50;99.90;;;;;;5066587;28;20223;-67
2022/11/18 12:48:34;;;;;;;25.43;15.97;;;0.50;99.90;;;;;;5071559;28;20232;-67
2022/11/18 12:51:03;;;;;;;27.90;16.43;;;0.60;99.90;;;;;;5071828;28;20200;-66
2022/11/18 12:53:36;;;;;;;26.80;16.70;;;0.60;99.90;;;;;;5072759;28;20228;-67
2022/11/18 12:56:12;;;;;;;26.93;16.20;;;0.60;99.90;;;;;;5071552;28;20208;-67
2022/11/18 12:58:44;;;;;;;28.50;15.27;;;0.60;99.90;;;;;;5073052;28;20201;-66
2022/11/18 13:01:13;;;;;;;23.83;15.43;;;0.60;99.90;;;;;;5072205;28;20545;-66
2022/11/18 13:03:40;;;;;;;25.03;16.47;;;0.60;99.90;;;;;;5071447;28;20209;-67
2022/11/18 13:06:19;;;;;;;29.40;17.07;;;0.70;99.90;;;;;;5072055;28;20212;-68
2022/11/18 13:08:53;;;;;;;23.93;16.00;;;0.60;99.90;;;;;;5072438;28;20236;-66
2022/11/18 13:19:35;;;;;;;28.03;16.73;;;0.60;99.90;;;;;;5058678;28;20219;-66
2022/11/18 13:24:50;;;;;;;27.63;17.30;;;0.50;99.90;;;;;;5064669;28;20326;-66
2022/11/18 13:27:26;;;;;;;32.70;19.23;;;0.40;99.90;;;;;;5067506;28;20560;-66
2022/11/18 13:30:00;;;;;;;30.40;19.50;;;0.30;99.90;;;;;;5058788;28;20215;-66
2022/11/18 13:32:29;;;;;;;26.60;16.30;;;0.30;99.90;;;;;;5071302;28;20216;-66
2022/11/18 13:34:57;;;;;;;25.97;17.07;;;0.20;99.90;;;;;;5071480;28;20209;-67
2022/11/18 13:37:25;;;;;;;27.33;17.77;;;0.10;99.90;;;;;;5051990;28;20211;-65
2022/11/18 13:39:54;;;;;;;30.40;17.13;;;0.10;99.90;;;;;;5068345;28;20200;-66
2022/11/18 13:42:22;;;;;;;30.20;16.80;;;0.10;99.90;;;;;;5072520;28;20308;-67
2022/11/18 13:44:53;;;;;;;29.90;17.20;;;0.10;99.90;;;;;;5073282;28;20219;-67
2022/11/18 13:47:27;;;;;;;28.43;17.43;;;0.00;99.90;;;;;;5072642;28;20284;-67
2022/11/18 13:50:04;;;;;;;29.93;19.13;;;0.00;99.90;;;;;;5072736;28;20563;-68
2022/11/18 13:52:36;;;;;;;25.20;17.53;;;0.00;99.90;;;;;;5060488;28;20213;-66
2022/11/18 13:55:13;;;;;;;27.97;17.40;;;0.00;99.90;;;;;;5053119;28;20231;-66
2022/11/18 13:57:41;;;;;;;26.20;16.50;;;0.00;99.90;;;;;;5052583;28;20224;-66
2022/11/18 14:00:21;;;;;;;30.93;18.07;;;0.00;99.90;;;;;;5052190;28;20209;-67
2022/11/18 14:02:55;;;;;;;32.73;18.87;;;-0.10;99.90;;;;;;5053491;28;20181;-65
2022/11/18 14:05:22;;;;;;;32.17;20.03;;;-0.20;99.90;;;;;;5065366;28;20656;-67
2022/11/18 14:08:02;;;;;;;36.07;21.10;;;-0.10;99.90;;;;;;5070988;28;20216;-66
2022/11/18 14:10:51;;;;;;;43.07;24.53;;;-0.10;99.90;;;;;;5053203;28;20196;-67
2022/11/18 14:13:24;;;;;;;34.20;21.77;;;-0.10;99.90;;;;;;5064282;28;20239;-67
2022/11/18 14:15:52;;;;;;;43.90;25.63;;;-0.10;99.90;;;;;;5071945;28;20264;-66
2022/11/18 14:18:28;;;;;;;43.63;26.93;;;-0.10;99.90;;;;;;5067360;28;20255;-67
2022/11/18 14:20:56;;;;;;;39.00;23.90;;;-0.10;99.90;;;;;;5073353;28;20200;-67
2022/11/18 14:23:28;;;;;;;40.53;24.13;;;0.00;99.90;;;;;;5073606;28;20201;-67
2022/11/18 14:25:58;;;;;;;35.50;23.23;;;0.00;99.90;;;;;;5073552;28;20530;-67
2022/11/18 14:28:27;;;;;;;38.20;20.63;;;0.00;99.90;;;;;;5070289;28;20212;-67
2022/11/18 14:30:59;;;;;;;34.50;21.27;;;0.00;99.90;;;;;;5072524;28;20205;-67
2022/11/18 14:33:27;;;;;;;31.73;21.23;;;0.00;99.90;;;;;;5072307;28;20220;-66
2022/11/18 14:35:57;;;;;;;31.50;19.10;;;0.00;99.90;;;;;;5071457;28;20487;-68
2022/11/18 14:38:30;;;;;;;27.77;18.17;;;0.00;99.90;;;;;;5070091;28;20718;-68
2022/11/18 14:41:00;;;;;;;34.60;20.80;;;0.00;99.90;;;;;;5068664;28;20213;-68
2022/11/18 14:43:27;;;;;;;31.87;21.03;;;-0.10;99.90;;;;;;5071635;28;20188;-68
2022/11/18 14:45:57;;;;;;;30.63;21.13;;;-0.10;99.90;;;;;;5061478;28;20214;-66
2022/11/18 14:48:25;;;;;;;30.80;19.93;;;-0.10;99.90;;;;;;5063836;28;20233;-66
2022/11/18 14:50:52;;;;;;;30.37;20.03;;;-0.10;99.90;;;;;;5059774;28;20205;-68
2022/11/18 14:53:20;;;;;;;32.87;19.60;;;-0.10;99.90;;;;;;5070500;28;20220;-70
2022/11/18 14:55:49;;;;;;;34.97;21.37;;;-0.10;99.90;;;;;;5066255;28;20205;-67
2022/11/18 14:58:17;;;;;;;34.70;20.43;;;-0.20;99.90;;;;;;5071857;28;20200;-67
2022/11/18 15:00:46;;;;;;;31.83;21.10;;;-0.20;99.90;;;;;;5067440;28;20212;-67
2022/11/18 15:03:13;;;;;;;34.97;21.57;;;-0.20;99.90;;;;;;5067811;28;20197;-68
2022/11/18 15:05:40;;;;;;;32.63;21.60;;;-0.20;99.90;;;;;;5067760;28;20209;-68
2022/11/18 15:08:07;;;;;;;33.00;21.27;;;-0.20;99.90;;;;;;5071976;28;20227;-68
2022/11/18 15:10:34;;;;;;;37.70;22.77;;;-0.20;99.90;;;;;;5071593;28;20290;-67
2022/11/18 15:13:01;;;;;;;37.70;23.40;;;-0.20;99.90;;;;;;5070581;28;20713;-67
2022/11/18 15:15:29;;;;;;;33.33;21.87;;;-0.20;99.90;;;;;;5064096;28;20229;-67
2022/11/18 15:17:56;;;;;;;36.77;23.23;;;-0.20;99.90;;;;;;5052881;28;20205;-68
2022/11/18 15:20:23;;;;;;;34.40;22.47;;;-0.20;99.90;;;;;;5064365;28;20201;-67
2022/11/18 15:22:50;;;;;;;31.67;20.43;;;-0.20;99.90;;;;;;5074782;28;20207;-67
2022/11/18 15:25:17;;;;;;;38.23;22.93;;;-0.20;99.90;;;;;;5075401;28;20200;-67
2022/11/18 15:27:44;;;;;;;34.17;21.63;;;-0.20;99.90;;;;;;5069850;28;20209;-67
2022/11/18 15:30:14;;;;;;;35.73;21.17;;;-0.20;99.90;;;;;;5062708;28;20201;-67
2022/11/18 15:32:42;;;;;;;40.47;24.27;;;-0.20;99.90;;;;;;5072238;28;20236;-66
2022/11/18 15:35:11;;;;;;;39.53;23.57;;;-0.20;99.90;;;;;;5073031;28;20208;-68
2022/11/18 15:37:38;;;;;;;35.00;22.80;;;-0.20;99.90;;;;;;5060445;28;20262;-66
2022/11/18 15:40:06;;;;;;;34.10;21.77;;;-0.20;99.90;;;;;;5074948;28;20246;-68
2022/11/18 15:42:33;;;;;;;34.33;22.10;;;-0.20;99.90;;;;;;5075034;28;20203;-67
2022/11/18 15:44:59;;;;;;;31.27;21.13;;;-0.30;99.90;;;;;;5071546;28;20300;-67
2022/11/18 15:47:26;;;;;;;32.13;19.60;;;-0.20;99.90;;;;;;5074600;28;20219;-66
2022/11/18 15:49:54;;;;;;;33.70;21.57;;;-0.20;99.90;;;;;;5074056;28;20236;-67
2022/11/18 15:52:21;;;;;;;30.23;19.17;;;-0.30;99.90;;;;;;5072226;28;20582;-69
2022/11/18 15:54:48;;;;;;;30.27;19.50;;;-0.30;99.90;;;;;;5075343;28;20275;-67
2022/11/18 15:57:15;;;;;;;30.70;19.47;;;-0.30;99.90;;;;;;5075123;28;20687;-67
2022/11/18 15:59:41;;;;;;;34.47;21.10;;;-0.30;99.90;;;;;;5075347;28;20634;-67
2022/11/18 18:54:58;;;;;;;54.77;34.73;;;0.20;99.90;;;;;;6081863;22;1444697;-66
2022/11/18 18:57:25;;;;;;;53.87;33.93;;;0.10;99.90;;;;;;6157576;23;20178;-67
2022/11/18 18:59:52;;;;;;;53.93;34.43;;;0.20;99.90;;;;;;6160698;23;20187;-65
2022/11/18 19:02:19;;;;;;;48.97;31.20;;;0.10;99.90;;;;;;6160621;23;20624;-66
2022/11/18 19:04:46;;;;;;;52.73;32.83;;;0.10;99.90;;;;;;6160159;23;20630;-67
2022/11/18 19:07:12;;;;;;;54.83;35.97;;;0.10;99.90;;;;;;6159637;23;20202;-66
2022/11/18 19:09:39;;;;;;;58.47;36.17;;;0.00;99.90;;;;;;6159587;23;20678;-64
2022/11/18 19:14:53;;;;;;;52.00;32.87;;;0.00;99.90;;;;;;6159282;23;20229;-65
2022/11/18 19:17:20;;;;;;;46.97;30.93;;;0.00;99.90;;;;;;6160679;23;20181;-65
2022/11/18 19:22:33;;;;;;;48.70;31.73;;;-0.10;99.90;;;;;;6128314;23;20186;-64
2022/11/18 19:25:00;;;;;;;44.40;30.40;;;-0.10;99.90;;;;;;6128531;23;20642;-66
2022/11/18 19:27:28;;;;;;;44.67;30.00;;;-0.20;99.90;;;;;;6127942;23;20199;-65
2022/11/18 19:29:55;;;;;;;48.00;30.90;;;-0.20;99.90;;;;;;6121968;23;20199;-67
2022/11/18 19:32:22;;;;;;;52.67;32.00;;;-0.10;99.90;;;;;;6122261;23;20669;-64
2022/11/18 19:34:49;;;;;;;42.83;28.80;;;-0.10;99.90;;;;;;6123137;23;20267;-65
2022/11/18 19:37:15;;;;;;;45.53;29.03;;;-0.20;99.90;;;;;;6123354;23;20175;-65
2022/11/18 19:39:42;;;;;;;50.47;30.47;;;-0.20;99.90;;;;;;6124134;23;20183;-66
2022/11/18 19:42:09;;;;;;;42.13;27.90;;;-0.20;99.90;;;;;;6123947;23;20686;-67
2022/11/18 19:44:37;;;;;;;38.57;24.77;;;-0.30;99.90;;;;;;6124688;23;20852;-65
2022/11/18 19:47:04;;;;;;;35.73;23.43;;;-0.30;99.90;;;;;;6124597;23;20516;-64
2022/11/18 19:49:31;;;;;;;34.83;24.50;;;-0.30;99.90;;;;;;6124211;23;20183;-66
2022/11/18 19:51:58;;;;;;;36.03;22.47;;;-0.30;99.90;;;;;;6124650;23;20199;-65
2022/11/18 19:54:25;;;;;;;32.57;22.47;;;-0.30;99.90;;;;;;6123832;23;20210;-64
2022/11/18 19:56:51;;;;;;;30.67;21.40;;;-0.40;99.90;;;;;;6123756;23;20195;-63
2022/11/18 19:59:18;;;;;;;32.23;22.07;;;-0.40;99.90;;;;;;6124469;23;20280;-66
2022/11/18 20:01:46;;;;;;;28.23;19.73;;;-0.40;99.90;;;;;;6124245;23;20235;-66
2022/11/18 20:04:13;;;;;;;27.57;18.97;;;-0.40;99.90;;;;;;6123910;23;20183;-64
2022/11/18 20:06:40;;;;;;;30.23;20.90;;;-0.40;99.90;;;;;;6124088;23;20179;-66
2022/11/18 20:09:07;;;;;;;33.13;22.43;;;-0.40;99.90;;;;;;6124059;23;20179;-65
2022/11/18 20:11:35;;;;;;;31.60;20.80;;;-0.50;99.90;;;;;;6124101;23;20725;-64
2022/11/18 20:14:02;;;;;;;30.63;20.30;;;-0.50;99.90;;;;;;6123699;23;20188;-64
2022/11/18 20:16:29;;;;;;;27.53;18.73;;;-0.40;99.90;;;;;;6122494;23;20184;-67
2022/11/18 20:18:59;;;;;;;32.13;20.17;;;-0.40;99.90;;;;;;6122790;23;20187;-66
2022/11/18 20:21:28;;;;;;;28.87;18.90;;;-0.40;99.90;;;;;;6123818;23;20178;-65
2022/11/18 20:23:57;;;;;;;29.33;18.70;;;-0.40;99.90;;;;;;6123961;23;20693;-66
2022/11/18 20:26:26;;;;;;;27.53;18.57;;;-0.40;99.90;;;;;;6123297;23;20519;-64
2022/11/18 20:28:53;;;;;;;31.70;19.23;;;-0.30;99.90;;;;;;6123682;23;20199;-65
2022/11/18 20:31:21;;;;;;;30.77;19.70;;;-0.30;99.90;;;;;;6123675;23;20696;-65
2022/11/18 20:33:50;;;;;;;28.87;18.83;;;-0.40;99.90;;;;;;6124020;23;20270;-66
2022/11/18 20:36:20;;;;;;;31.20;20.43;;;-0.40;99.90;;;;;;6123712;23;20187;-65